sensor_id;sensor_type;location;lat;lon;timestamp;pressure;altitude;pressure_sealevel;temperature
15144;BMP180;7672;50.834;6.286;2024-02-28T00:00:42;100100.97;;;7.80
15144;BMP180;7672;50.834;6.286;2024-02-28T00:03:09;100105.03;;;7.74
15144;BMP180;7672;50.834;6.286;2024-02-28T00:05:42;100099.84;;;7.66
15144;BMP180;7672;50.834;6.286;2024-02-28T00:08:14;100103.88;;;7.60
15144;BMP180;7672;50.834;6.286;2024-02-28T00:10:41;100101.19;;;7.52
15144;BMP180;7672;50.834;6.286;2024-02-28T00:13:08;100103.63;;;7.48
15144;BMP180;7672;50.834;6.286;2024-02-28T00:15:36;100097.63;;;7.43
15144;BMP180;7672;50.834;6.286;2024-02-28T00:18:03;100098.41;;;7.40
15144;BMP180;7672;50.834;6.286;2024-02-28T00:20:31;100097.50;;;7.37
15144;BMP180;7672;50.834;6.286;2024-02-28T00:23:01;100101.59;;;7.34
15144;BMP180;7672;50.834;6.286;2024-02-28T00:25:29;100101.44;;;7.28
15144;BMP180;7672;50.834;6.286;2024-02-28T00:27:56;100102.16;;;7.22
15144;BMP180;7672;50.834;6.286;2024-02-28T00:30:29;100101.16;;;7.16
15144;BMP180;7672;50.834;6.286;2024-02-28T00:32:56;100108.59;;;7.11
15144;BMP180;7672;50.834;6.286;2024-02-28T00:35:25;100114.34;;;7.07
15144;BMP180;7672;50.834;6.286;2024-02-28T00:37:55;100114.25;;;7.03
15144;BMP180;7672;50.834;6.286;2024-02-28T00:40:23;100113.25;;;6.96
15144;BMP180;7672;50.834;6.286;2024-02-28T00:43:05;100113.09;;;6.90
15144;BMP180;7672;50.834;6.286;2024-02-28T00:45:32;100098.75;;;6.85
15144;BMP180;7672;50.834;6.286;2024-02-28T00:48:03;100099.47;;;6.81
15144;BMP180;7672;50.834;6.286;2024-02-28T00:50:32;100097.63;;;6.75
15144;BMP180;7672;50.834;6.286;2024-02-28T00:53:00;100109.41;;;6.76
15144;BMP180;7672;50.834;6.286;2024-02-28T00:55:34;100098.38;;;6.72
15144;BMP180;7672;50.834;6.286;2024-02-28T00:58:03;100089.94;;;6.70
15144;BMP180;7672;50.834;6.286;2024-02-28T01:00:36;100090.78;;;6.69
15144;BMP180;7672;50.834;6.286;2024-02-28T01:03:05;100094.03;;;6.65
15144;BMP180;7672;50.834;6.286;2024-02-28T01:05:40;100093.06;;;6.60
15144;BMP180;7672;50.834;6.286;2024-02-28T01:08:09;100090.47;;;6.58
15144;BMP180;7672;50.834;6.286;2024-02-28T01:10:36;100084.59;;;6.56
15144;BMP180;7672;50.834;6.286;2024-02-28T01:13:07;100087.06;;;6.55
15144;BMP180;7672;50.834;6.286;2024-02-28T01:15:41;100096.25;;;6.54
15144;BMP180;7672;50.834;6.286;2024-02-28T01:18:12;100089.47;;;6.52
15144;BMP180;7672;50.834;6.286;2024-02-28T01:20:47;100101.16;;;6.50
15144;BMP180;7672;50.834;6.286;2024-02-28T01:23:15;100108.59;;;6.47
15144;BMP180;7672;50.834;6.286;2024-02-28T01:26:10;100109.31;;;6.43
15144;BMP180;7672;50.834;6.286;2024-02-28T01:28:39;100096.69;;;6.40
15144;BMP180;7672;50.834;6.286;2024-02-28T01:31:06;100096.69;;;6.40
15144;BMP180;7672;50.834;6.286;2024-02-28T01:33:33;100092.44;;;6.37
15144;BMP180;7672;50.834;6.286;2024-02-28T01:36:04;100094.13;;;6.37
15144;BMP180;7672;50.834;6.286;2024-02-28T01:38:36;100096.50;;;6.32
15144;BMP180;7672;50.834;6.286;2024-02-28T01:41:12;100101.50;;;6.32
15144;BMP180;7672;50.834;6.286;2024-02-28T01:43:46;100094.75;;;6.30
15144;BMP180;7672;50.834;6.286;2024-02-28T01:46:28;100100.53;;;6.27
15144;BMP180;7672;50.834;6.286;2024-02-28T01:49:00;100091.28;;;6.26
15144;BMP180;7672;50.834;6.286;2024-02-28T01:51:36;100087.94;;;6.26
15144;BMP180;7672;50.834;6.286;2024-02-28T01:54:08;100092.06;;;6.24
15144;BMP180;7672;50.834;6.286;2024-02-28T01:56:43;100090.31;;;6.21
15144;BMP180;7672;50.834;6.286;2024-02-28T01:59:22;100099.66;;;6.25
15144;BMP180;7672;50.834;6.286;2024-02-28T02:01:52;100088.72;;;6.23
15144;BMP180;7672;50.834;6.286;2024-02-28T02:04:27;100085.41;;;6.24
15144;BMP180;7672;50.834;6.286;2024-02-28T02:06:58;100076.13;;;6.22
15144;BMP180;7672;50.834;6.286;2024-02-28T02:09:34;100079.44;;;6.21
15144;BMP180;7672;50.834;6.286;2024-02-28T02:12:11;100080.25;;;6.20
15144;BMP180;7672;50.834;6.286;2024-02-28T02:14:51;100078.53;;;6.19
15144;BMP180;7672;50.834;6.286;2024-02-28T02:17:21;100086.03;;;6.17
15144;BMP180;7672;50.834;6.286;2024-02-28T02:19:55;100085.19;;;6.17
15144;BMP180;7672;50.834;6.286;2024-02-28T02:22:27;100080.94;;;6.14
15144;BMP180;7672;50.834;6.286;2024-02-28T02:24:57;100084.38;;;6.18
15144;BMP180;7672;50.834;6.286;2024-02-28T02:27:30;100077.66;;;6.17
15144;BMP180;7672;50.834;6.286;2024-02-28T02:29:59;100079.31;;;6.16
15144;BMP180;7672;50.834;6.286;2024-02-28T02:32:30;100085.97;;;6.14
15144;BMP180;7672;50.834;6.286;2024-02-28T02:34:57;100091.78;;;6.13
15144;BMP180;7672;50.834;6.286;2024-02-28T02:37:24;100093.44;;;6.13
15144;BMP180;7672;50.834;6.286;2024-02-28T02:39:51;100086.69;;;6.11
15144;BMP180;7672;50.834;6.286;2024-02-28T02:42:20;100093.34;;;6.10
15144;BMP180;7672;50.834;6.286;2024-02-28T02:44:47;100093.28;;;6.07
15144;BMP180;7672;50.834;6.286;2024-02-28T02:47:14;100089.94;;;6.07
15144;BMP180;7672;50.834;6.286;2024-02-28T02:49:41;100088.25;;;6.07
15144;BMP180;7672;50.834;6.286;2024-02-28T02:52:08;100092.38;;;6.05
15144;BMP180;7672;50.834;6.286;2024-02-28T02:54:36;100089.84;;;6.05
15144;BMP180;7672;50.834;6.286;2024-02-28T02:57:04;100089.78;;;6.02
15144;BMP180;7672;50.834;6.286;2024-02-28T02:59:31;100088.91;;;6.00
15144;BMP180;7672;50.834;6.286;2024-02-28T03:01:58;100104.00;;;6.02
15144;BMP180;7672;50.834;6.286;2024-02-28T03:04:25;100093.81;;;5.97
15144;BMP180;7672;50.834;6.286;2024-02-28T03:06:52;100094.69;;;5.98
15144;BMP180;7672;50.834;6.286;2024-02-28T03:09:19;100100.47;;;5.95
15144;BMP180;7672;50.834;6.286;2024-02-28T03:11:46;100102.16;;;5.96
15144;BMP180;7672;50.834;6.286;2024-02-28T03:14:13;100116.31;;;5.94
15144;BMP180;7672;50.834;6.286;2024-02-28T03:16:42;100122.97;;;5.94
15144;BMP180;7672;50.834;6.286;2024-02-28T03:19:10;100118.72;;;5.91
15144;BMP180;7672;50.834;6.286;2024-02-28T03:21:38;100111.16;;;5.90
15144;BMP180;7672;50.834;6.286;2024-02-28T03:24:05;100115.34;;;5.89
15144;BMP180;7672;50.834;6.286;2024-02-28T03:26:32;100128.69;;;5.88
15144;BMP180;7672;50.834;6.286;2024-02-28T03:29:00;100118.59;;;5.87
15144;BMP180;7672;50.834;6.286;2024-02-28T03:31:27;100118.59;;;5.87
15144;BMP180;7672;50.834;6.286;2024-02-28T03:33:54;100125.28;;;5.86
15144;BMP180;7672;50.834;6.286;2024-02-28T03:36:22;100128.69;;;5.88
15144;BMP180;7672;50.834;6.286;2024-02-28T03:38:49;100129.44;;;5.86
15144;BMP180;7672;50.834;6.286;2024-02-28T03:41:16;100130.25;;;5.85
15144;BMP180;7672;50.834;6.286;2024-02-28T03:43:43;100134.41;;;5.84
15144;BMP180;7672;50.834;6.286;2024-02-28T03:46:10;100132.84;;;5.88
15144;BMP180;7672;50.834;6.286;2024-02-28T03:48:37;100126.97;;;5.87
15144;BMP180;7672;50.834;6.286;2024-02-28T03:51:04;100122.09;;;5.92
15144;BMP180;7672;50.834;6.286;2024-02-28T03:53:31;100126.41;;;5.96
15144;BMP180;7672;50.834;6.286;2024-02-28T03:55:59;100129.09;;;6.02
15144;BMP180;7672;50.834;6.286;2024-02-28T03:58:28;100126.66;;;6.05
15144;BMP180;7672;50.834;6.286;2024-02-28T04:00:55;100137.63;;;6.08
15144;BMP180;7672;50.834;6.286;2024-02-28T04:03:22;100146.94;;;6.12
15144;BMP180;7672;50.834;6.286;2024-02-28T04:06:05;100160.47;;;6.17
15144;BMP180;7672;50.834;6.286;2024-02-28T04:08:41;100155.53;;;6.20
15144;BMP180;7672;50.834;6.286;2024-02-28T04:12:10;100158.16;;;6.23
15144;BMP180;7672;50.834;6.286;2024-02-28T04:15:39;100152.41;;;6.27
15144;BMP180;7672;50.834;6.286;2024-02-28T04:18:10;100154.22;;;6.32
15144;BMP180;7672;50.834;6.286;2024-02-28T04:20:41;100160.28;;;6.39
15144;BMP180;7672;50.834;6.286;2024-02-28T04:23:13;100152.00;;;6.43
15144;BMP180;7672;50.834;6.286;2024-02-28T04:26:04;100156.22;;;6.44
15144;BMP180;7672;50.834;6.286;2024-02-28T04:28:36;100156.38;;;6.48
15144;BMP180;7672;50.834;6.286;2024-02-28T04:31:09;100174.00;;;6.51
15144;BMP180;7672;50.834;6.286;2024-02-28T04:33:53;100169.84;;;6.52
15144;BMP180;7672;50.834;6.286;2024-02-28T04:36:21;100173.22;;;6.52
15144;BMP180;7672;50.834;6.286;2024-02-28T04:38:50;100164.00;;;6.53
15144;BMP180;7672;50.834;6.286;2024-02-28T04:41:18;100163.28;;;6.57
15144;BMP180;7672;50.834;6.286;2024-02-28T04:43:45;100172.69;;;6.64
15144;BMP180;7672;50.834;6.286;2024-02-28T04:46:12;100171.91;;;6.66
15144;BMP180;7672;50.834;6.286;2024-02-28T04:48:39;100172.06;;;6.72
15144;BMP180;7672;50.834;6.286;2024-02-28T04:51:06;100181.44;;;6.77
15144;BMP180;7672;50.834;6.286;2024-02-28T04:53:33;100166.44;;;6.80
15144;BMP180;7672;50.834;6.286;2024-02-28T04:56:00;100177.53;;;6.88
15144;BMP180;7672;50.834;6.286;2024-02-28T04:58:27;100174.25;;;6.91
15144;BMP180;7672;50.834;6.286;2024-02-28T05:00:54;100173.53;;;6.95
15144;BMP180;7672;50.834;6.286;2024-02-28T05:03:21;100176.16;;;6.99
15144;BMP180;7672;50.834;6.286;2024-02-28T05:05:49;100170.38;;;7.03
15144;BMP180;7672;50.834;6.286;2024-02-28T05:08:19;100177.19;;;7.07
15144;BMP180;7672;50.834;6.286;2024-02-28T05:10:47;100179.72;;;7.09
15144;BMP180;7672;50.834;6.286;2024-02-28T05:13:14;100181.47;;;7.11
15144;BMP180;7672;50.834;6.286;2024-02-28T05:15:41;100182.31;;;7.10
15144;BMP180;7672;50.834;6.286;2024-02-28T05:18:09;100189.97;;;7.15
15144;BMP180;7672;50.834;6.286;2024-02-28T05:20:36;100180.84;;;7.18
15144;BMP180;7672;50.834;6.286;2024-02-28T05:23:03;100181.78;;;7.22
15144;BMP180;7672;50.834;6.286;2024-02-28T05:25:30;100176.81;;;7.25
15144;BMP180;7672;50.834;6.286;2024-02-28T05:27:57;100188.59;;;7.27
15144;BMP180;7672;50.834;6.286;2024-02-28T05:30:24;100180.22;;;7.27
15144;BMP180;7672;50.834;6.286;2024-02-28T05:32:51;100185.16;;;7.24
15144;BMP180;7672;50.834;6.286;2024-02-28T05:35:18;100186.69;;;7.19
15144;BMP180;7672;50.834;6.286;2024-02-28T05:37:45;100185.69;;;7.12
15144;BMP180;7672;50.834;6.286;2024-02-28T05:40:15;100182.97;;;7.03
15144;BMP180;7672;50.834;6.286;2024-02-28T05:42:42;100189.53;;;6.98
15144;BMP180;7672;50.834;6.286;2024-02-28T05:45:09;100197.72;;;6.91
15144;BMP180;7672;50.834;6.286;2024-02-28T05:47:37;100195.09;;;6.87
15144;BMP180;7672;50.834;6.286;2024-02-28T05:50:05;100203.38;;;6.84
15144;BMP180;7672;50.834;6.286;2024-02-28T05:52:32;100196.56;;;6.79
15144;BMP180;7672;50.834;6.286;2024-02-28T05:54:59;100206.47;;;6.74
15144;BMP180;7672;50.834;6.286;2024-02-28T05:57:26;100198.81;;;6.70
15144;BMP180;7672;50.834;6.286;2024-02-28T05:59:53;100205.38;;;6.65
15144;BMP180;7672;50.834;6.286;2024-02-28T06:02:21;100214.47;;;6.62
15144;BMP180;7672;50.834;6.286;2024-02-28T06:04:48;100218.56;;;6.58
15144;BMP180;7672;50.834;6.286;2024-02-28T06:07:15;100222.63;;;6.53
15144;BMP180;7672;50.834;6.286;2024-02-28T06:09:42;100220.88;;;6.51
15144;BMP180;7672;50.834;6.286;2024-02-28T06:12:09;100214.06;;;6.47
15144;BMP180;7672;50.834;6.286;2024-02-28T06:14:36;100225.72;;;6.45
15144;BMP180;7672;50.834;6.286;2024-02-28T06:17:04;100211.38;;;6.41
15144;BMP180;7672;50.834;6.286;2024-02-28T06:19:31;100218.88;;;6.39
15144;BMP180;7672;50.834;6.286;2024-02-28T06:21:58;100223.84;;;6.38
15144;BMP180;7672;50.834;6.286;2024-02-28T06:24:25;100237.16;;;6.35
15144;BMP180;7672;50.834;6.286;2024-02-28T06:26:52;100238.81;;;6.35
15144;BMP180;7672;50.834;6.286;2024-02-28T06:29:20;100233.72;;;6.32
15144;BMP180;7672;50.834;6.286;2024-02-28T06:31:52;100235.38;;;6.31
15144;BMP180;7672;50.834;6.286;2024-02-28T06:34:19;100231.97;;;6.29
15144;BMP180;7672;50.834;6.286;2024-02-28T06:36:46;100239.47;;;6.28
15144;BMP180;7672;50.834;6.286;2024-02-28T06:39:13;100242.81;;;6.28
15144;BMP180;7672;50.834;6.286;2024-02-28T06:41:40;100248.59;;;6.26
15144;BMP180;7672;50.834;6.286;2024-02-28T06:44:07;100250.31;;;6.27
15144;BMP180;7672;50.834;6.286;2024-02-28T06:46:34;100254.53;;;6.28
15144;BMP180;7672;50.834;6.286;2024-02-28T06:49:01;100251.22;;;6.30
15144;BMP180;7672;50.834;6.286;2024-02-28T06:51:28;100256.47;;;6.38
15144;BMP180;7672;50.834;6.286;2024-02-28T06:53:56;100260.88;;;6.45
15144;BMP180;7672;50.834;6.286;2024-02-28T06:56:23;100268.72;;;6.55
15144;BMP180;7672;50.834;6.286;2024-02-28T06:58:50;100256.56;;;6.69
15144;BMP180;7672;50.834;6.286;2024-02-28T07:01:18;100264.59;;;6.86
15144;BMP180;7672;50.834;6.286;2024-02-28T07:03:45;100259.25;;;7.05
15144;BMP180;7672;50.834;6.286;2024-02-28T07:06:12;100270.81;;;7.30
15144;BMP180;7672;50.834;6.286;2024-02-28T07:08:39;100279.06;;;7.58
15144;BMP180;7672;50.834;6.286;2024-02-28T07:11:13;100273.09;;;7.88
15144;BMP180;7672;50.834;6.286;2024-02-28T07:13:41;100273.94;;;8.22
15144;BMP180;7672;50.834;6.286;2024-02-28T07:16:08;100283.16;;;8.59
15144;BMP180;7672;50.834;6.286;2024-02-28T07:18:35;100284.78;;;8.96
15144;BMP180;7672;50.834;6.286;2024-02-28T07:21:02;100287.22;;;9.36
15144;BMP180;7672;50.834;6.286;2024-02-28T07:23:29;100277.03;;;9.79
15144;BMP180;7672;50.834;6.286;2024-02-28T07:25:57;100279.47;;;10.24
15144;BMP180;7672;50.834;6.286;2024-02-28T07:28:31;100267.47;;;10.70
15144;BMP180;7672;50.834;6.286;2024-02-28T07:30:58;100274.69;;;11.13
15144;BMP180;7672;50.834;6.286;2024-02-28T07:33:25;100272.66;;;11.56
15144;BMP180;7672;50.834;6.286;2024-02-28T07:35:53;100269.63;;;11.99
15144;BMP180;7672;50.834;6.286;2024-02-28T07:38:20;100269.06;;;12.43
15144;BMP180;7672;50.834;6.286;2024-02-28T07:40:50;100271.03;;;12.90
15144;BMP180;7672;50.834;6.286;2024-02-28T07:43:17;100272.00;;;13.35
15144;BMP180;7672;50.834;6.286;2024-02-28T07:45:44;100274.59;;;13.83
15144;BMP180;7672;50.834;6.286;2024-02-28T07:48:11;100277.97;;;14.29
15144;BMP180;7672;50.834;6.286;2024-02-28T07:50:38;100273.59;;;14.73
15144;BMP180;7672;50.834;6.286;2024-02-28T07:53:08;100281.09;;;15.10
15144;BMP180;7672;50.834;6.286;2024-02-28T07:55:35;100280.91;;;15.49
15144;BMP180;7672;50.834;6.286;2024-02-28T07:58:02;100279.69;;;15.93
15144;BMP180;7672;50.834;6.286;2024-02-28T08:00:29;100281.13;;;16.30
15144;BMP180;7672;50.834;6.286;2024-02-28T08:02:59;100276.38;;;16.73
15144;BMP180;7672;50.834;6.286;2024-02-28T08:05:26;100285.13;;;17.22
15144;BMP180;7672;50.834;6.286;2024-02-28T08:07:53;100281.88;;;17.70
15144;BMP180;7672;50.834;6.286;2024-02-28T08:10:20;100280.31;;;18.12
15144;BMP180;7672;50.834;6.286;2024-02-28T08:12:47;100271.47;;;18.33
15144;BMP180;7672;50.834;6.286;2024-02-28T08:15:14;100274.09;;;18.30
15144;BMP180;7672;50.834;6.286;2024-02-28T08:17:41;100281.69;;;18.33
15144;BMP180;7672;50.834;6.286;2024-02-28T08:20:08;100278.97;;;18.42
15144;BMP180;7672;50.834;6.286;2024-02-28T08:22:35;100275.22;;;18.59
15144;BMP180;7672;50.834;6.286;2024-02-28T08:25:02;100271.19;;;18.90
15144;BMP180;7672;50.834;6.286;2024-02-28T08:27:29;100275.44;;;19.31
15144;BMP180;7672;50.834;6.286;2024-02-28T08:29:58;100276.72;;;19.86
15144;BMP180;7672;50.834;6.286;2024-02-28T08:32:25;100283.03;;;20.40
15144;BMP180;7672;50.834;6.286;2024-02-28T08:34:52;100286.22;;;20.81
15144;BMP180;7672;50.834;6.286;2024-02-28T08:37:21;100279.19;;;21.15
15144;BMP180;7672;50.834;6.286;2024-02-28T08:39:48;100285.25;;;21.41
15144;BMP180;7672;50.834;6.286;2024-02-28T08:42:15;100281.38;;;21.83
15144;BMP180;7672;50.834;6.286;2024-02-28T08:44:42;100281.56;;;22.30
15144;BMP180;7672;50.834;6.286;2024-02-28T08:47:09;100283.59;;;22.69
15144;BMP180;7672;50.834;6.286;2024-02-28T08:49:40;100283.03;;;23.07
15144;BMP180;7672;50.834;6.286;2024-02-28T08:52:07;100287.66;;;23.43
15144;BMP180;7672;50.834;6.286;2024-02-28T08:54:34;100285.47;;;23.77
15144;BMP180;7672;50.834;6.286;2024-02-28T08:57:01;100296.72;;;24.17
15144;BMP180;7672;50.834;6.286;2024-02-28T08:59:30;100289.94;;;24.54
15144;BMP180;7672;50.834;6.286;2024-02-28T09:01:57;100288.88;;;24.96
15144;BMP180;7672;50.834;6.286;2024-02-28T09:04:24;100291.94;;;25.24
15144;BMP180;7672;50.834;6.286;2024-02-28T09:06:51;100292.91;;;25.40
15144;BMP180;7672;50.834;6.286;2024-02-28T09:09:20;100294.00;;;25.53
15144;BMP180;7672;50.834;6.286;2024-02-28T09:11:47;100306.00;;;25.74
15144;BMP180;7672;50.834;6.286;2024-02-28T09:14:14;100302.94;;;25.83
15144;BMP180;7672;50.834;6.286;2024-02-28T09:16:41;100299.84;;;25.93
15144;BMP180;7672;50.834;6.286;2024-02-28T09:19:08;100300.00;;;26.07
15144;BMP180;7672;50.834;6.286;2024-02-28T09:21:35;100301.47;;;26.29
15144;BMP180;7672;50.834;6.286;2024-02-28T09:24:02;100297.41;;;26.58
15144;BMP180;7672;50.834;6.286;2024-02-28T09:26:29;100308.13;;;26.84
15144;BMP180;7672;50.834;6.286;2024-02-28T09:28:56;100304.50;;;27.03
15144;BMP180;7672;50.834;6.286;2024-02-28T09:31:23;100308.28;;;27.29
15144;BMP180;7672;50.834;6.286;2024-02-28T09:33:50;100314.66;;;27.54
15144;BMP180;7672;50.834;6.286;2024-02-28T09:36:17;100315.66;;;27.82
15144;BMP180;7672;50.834;6.286;2024-02-28T09:38:44;100318.19;;;28.13
15144;BMP180;7672;50.834;6.286;2024-02-28T09:41:15;100312.00;;;28.45
15144;BMP180;7672;50.834;6.286;2024-02-28T09:43:44;100306.00;;;28.72
15144;BMP180;7672;50.834;6.286;2024-02-28T09:46:13;100300.44;;;29.06
15144;BMP180;7672;50.834;6.286;2024-02-28T09:48:41;100299.22;;;29.39
15144;BMP180;7672;50.834;6.286;2024-02-28T09:51:09;100291.84;;;29.72
15144;BMP180;7672;50.834;6.286;2024-02-28T09:53:39;100291.44;;;29.78
15144;BMP180;7672;50.834;6.286;2024-02-28T09:56:07;100296.88;;;29.75
15144;BMP180;7672;50.834;6.286;2024-02-28T09:58:34;100287.34;;;29.88
15144;BMP180;7672;50.834;6.286;2024-02-28T10:01:03;100284.38;;;30.06
15144;BMP180;7672;50.834;6.286;2024-02-28T10:03:31;100285.84;;;30.10
15144;BMP180;7672;50.834;6.286;2024-02-28T10:05:59;100267.75;;;29.95
15144;BMP180;7672;50.834;6.286;2024-02-28T10:08:31;100274.72;;;29.68
15144;BMP180;7672;50.834;6.286;2024-02-28T10:10:58;100274.72;;;29.41
15144;BMP180;7672;50.834;6.286;2024-02-28T10:13:25;100270.03;;;29.34
15144;BMP180;7672;50.834;6.286;2024-02-28T10:15:53;100268.97;;;29.50
15144;BMP180;7672;50.834;6.286;2024-02-28T10:18:20;100262.56;;;29.42
15144;BMP180;7672;50.834;6.286;2024-02-28T10:20:48;100259.03;;;29.29
15144;BMP180;7672;50.834;6.286;2024-02-28T10:23:16;100261.09;;;29.38
15144;BMP180;7672;50.834;6.286;2024-02-28T10:25:47;100268.19;;;29.48
15144;BMP180;7672;50.834;6.286;2024-02-28T10:28:24;100268.47;;;29.70
15144;BMP180;7672;50.834;6.286;2024-02-28T10:30:51;100270.28;;;29.96
15144;BMP180;7672;50.834;6.286;2024-02-28T10:33:19;100276.66;;;30.17
15144;BMP180;7672;50.834;6.286;2024-02-28T10:35:50;100274.50;;;30.36
15144;BMP180;7672;50.834;6.286;2024-02-28T10:38:18;100282.25;;;30.62
15144;BMP180;7672;50.834;6.286;2024-02-28T10:40:47;100286.63;;;30.86
15144;BMP180;7672;50.834;6.286;2024-02-28T10:43:16;100288.31;;;31.00
15144;BMP180;7672;50.834;6.286;2024-02-28T10:45:46;100288.50;;;31.09
15144;BMP180;7672;50.834;6.286;2024-02-28T10:48:33;100289.22;;;31.11
15144;BMP180;7672;50.834;6.286;2024-02-28T10:51:04;100298.09;;;31.21
15144;BMP180;7672;50.834;6.286;2024-02-28T10:53:41;100292.88;;;31.44
15144;BMP180;7672;50.834;6.286;2024-02-28T10:56:11;100290.22;;;31.69
15144;BMP180;7672;50.834;6.286;2024-02-28T10:58:52;100291.97;;;31.92
15144;BMP180;7672;50.834;6.286;2024-02-28T11:01:20;100293.28;;;32.21
15144;BMP180;7672;50.834;6.286;2024-02-28T11:03:50;100292.22;;;32.58
15144;BMP180;7672;50.834;6.286;2024-02-28T11:06:21;100299.81;;;32.82
15144;BMP180;7672;50.834;6.286;2024-02-28T11:08:51;100292.09;;;33.03
15144;BMP180;7672;50.834;6.286;2024-02-28T11:11:23;100291.63;;;33.09
15144;BMP180;7672;50.834;6.286;2024-02-28T11:13:55;100293.78;;;33.04
15144;BMP180;7672;50.834;6.286;2024-02-28T11:16:34;100281.03;;;33.10
15144;BMP180;7672;50.834;6.286;2024-02-28T11:19:03;100290.44;;;33.23
15144;BMP180;7672;50.834;6.286;2024-02-28T11:21:35;100284.50;;;33.11
15144;BMP180;7672;50.834;6.286;2024-02-28T11:24:02;100285.19;;;33.13
15144;BMP180;7672;50.834;6.286;2024-02-28T11:26:30;100271.88;;;33.05
15144;BMP180;7672;50.834;6.286;2024-02-28T11:28:57;100269.97;;;32.74
15144;BMP180;7672;50.834;6.286;2024-02-28T11:31:24;100273.72;;;32.48
15144;BMP180;7672;50.834;6.286;2024-02-28T11:33:51;100268.09;;;32.31
15144;BMP180;7672;50.834;6.286;2024-02-28T11:36:19;100262.47;;;32.24
15144;BMP180;7672;50.834;6.286;2024-02-28T11:38:46;100258.44;;;32.20
15144;BMP180;7672;50.834;6.286;2024-02-28T11:41:13;100260.44;;;32.17
15144;BMP180;7672;50.834;6.286;2024-02-28T11:43:40;100258.94;;;32.25
15144;BMP180;7672;50.834;6.286;2024-02-28T11:46:18;100257.28;;;32.35
15144;BMP180;7672;50.834;6.286;2024-02-28T11:48:46;100247.28;;;32.29
15144;BMP180;7672;50.834;6.286;2024-02-28T11:51:13;100243.19;;;32.14
15144;BMP180;7672;50.834;6.286;2024-02-28T11:53:40;100242.88;;;31.95
15144;BMP180;7672;50.834;6.286;2024-02-28T11:56:08;100235.13;;;31.83
15144;BMP180;7672;50.834;6.286;2024-02-28T11:58:35;100228.91;;;31.73
15144;BMP180;7672;50.834;6.286;2024-02-28T12:01:02;100231.28;;;31.65
15144;BMP180;7672;50.834;6.286;2024-02-28T12:03:30;100222.94;;;31.60
15144;BMP180;7672;50.834;6.286;2024-02-28T12:05:57;100230.72;;;31.49
15144;BMP180;7672;50.834;6.286;2024-02-28T12:08:24;100224.50;;;31.27
15144;BMP180;7672;50.834;6.286;2024-02-28T12:10:54;100224.38;;;30.93
15144;BMP180;7672;50.834;6.286;2024-02-28T12:13:23;100217.75;;;30.39
15144;BMP180;7672;50.834;6.286;2024-02-28T12:15:50;100214.72;;;29.82
15144;BMP180;7672;50.834;6.286;2024-02-28T12:18:17;100219.59;;;29.21
15144;BMP180;7672;50.834;6.286;2024-02-28T12:20:44;100215.69;;;28.60
15144;BMP180;7672;50.834;6.286;2024-02-28T12:23:12;100215.78;;;28.02
15144;BMP180;7672;50.834;6.286;2024-02-28T12:25:39;100204.03;;;27.36
15144;BMP180;7672;50.834;6.286;2024-02-28T12:28:06;100206.94;;;26.69
15144;BMP180;7672;50.834;6.286;2024-02-28T12:30:41;100200.56;;;26.10
15144;BMP180;7672;50.834;6.286;2024-02-28T12:33:11;100196.78;;;25.64
15144;BMP180;7672;50.834;6.286;2024-02-28T12:35:38;100203.91;;;25.26
15144;BMP180;7672;50.834;6.286;2024-02-28T12:38:05;100200.94;;;24.96
15144;BMP180;7672;50.834;6.286;2024-02-28T12:40:32;100193.63;;;24.69
15144;BMP180;7672;50.834;6.286;2024-02-28T12:42:59;100182.06;;;24.39
15144;BMP180;7672;50.834;6.286;2024-02-28T12:45:26;100180.59;;;24.14
15144;BMP180;7672;50.834;6.286;2024-02-28T12:47:53;100185.97;;;23.90
15144;BMP180;7672;50.834;6.286;2024-02-28T12:50:23;100180.09;;;23.65
15144;BMP180;7672;50.834;6.286;2024-02-28T12:52:52;100184.09;;;23.31
15144;BMP180;7672;50.834;6.286;2024-02-28T12:55:20;100176.09;;;22.94
15144;BMP180;7672;50.834;6.286;2024-02-28T12:57:50;100176.34;;;22.65
15144;BMP180;7672;50.834;6.286;2024-02-28T13:00:18;100168.50;;;22.45
15144;BMP180;7672;50.834;6.286;2024-02-28T13:02:45;100164.75;;;22.31
15144;BMP180;7672;50.834;6.286;2024-02-28T13:05:12;100169.41;;;22.20
15144;BMP180;7672;50.834;6.286;2024-02-28T13:07:40;100162.09;;;22.08
15144;BMP180;7672;50.834;6.286;2024-02-28T13:10:07;100165.13;;;21.96
15144;BMP180;7672;50.834;6.286;2024-02-28T13:12:37;100160.38;;;21.84
15144;BMP180;7672;50.834;6.286;2024-02-28T13:15:06;100155.84;;;21.67
15144;BMP180;7672;50.834;6.286;2024-02-28T13:17:34;100156.38;;;21.50
15144;BMP180;7672;50.834;6.286;2024-02-28T13:20:02;100144.81;;;21.37
15144;BMP180;7672;50.834;6.286;2024-02-28T13:22:30;100157.97;;;21.28
15144;BMP180;7672;50.834;6.286;2024-02-28T13:24:57;100169.41;;;21.18
15144;BMP180;7672;50.834;6.286;2024-02-28T13:27:24;100163.78;;;21.08
15144;BMP180;7672;50.834;6.286;2024-02-28T13:29:51;100155.41;;;21.01
15144;BMP180;7672;50.834;6.286;2024-02-28T13:32:19;100156.44;;;20.96
15144;BMP180;7672;50.834;6.286;2024-02-28T13:34:46;100160.81;;;20.92
15144;BMP180;7672;50.834;6.286;2024-02-28T13:37:16;100154.19;;;20.85
15144;BMP180;7672;50.834;6.286;2024-02-28T13:39:43;100151.75;;;20.81
15144;BMP180;7672;50.834;6.286;2024-02-28T13:42:10;100148.47;;;20.76
15144;BMP180;7672;50.834;6.286;2024-02-28T13:44:37;100153.78;;;20.70
15144;BMP180;7672;50.834;6.286;2024-02-28T13:47:05;100147.94;;;20.65
15144;BMP180;7672;50.834;6.286;2024-02-28T13:49:32;100140.56;;;20.53
15144;BMP180;7672;50.834;6.286;2024-02-28T13:51:59;100146.03;;;20.43
15144;BMP180;7672;50.834;6.286;2024-02-28T13:54:26;100135.25;;;20.30
15144;BMP180;7672;50.834;6.286;2024-02-28T13:56:54;100135.50;;;20.21
15144;BMP180;7672;50.834;6.286;2024-02-28T13:59:21;100141.78;;;20.11
15144;BMP180;7672;50.834;6.286;2024-02-28T14:01:48;100146.34;;;20.02
15144;BMP180;7672;50.834;6.286;2024-02-28T14:04:15;100147.47;;;19.90
15144;BMP180;7672;50.834;6.286;2024-02-28T14:06:42;100143.34;;;19.85
15144;BMP180;7672;50.834;6.286;2024-02-28T14:09:11;100141.81;;;19.78
15144;BMP180;7672;50.834;6.286;2024-02-28T14:11:38;100147.13;;;19.71
15144;BMP180;7672;50.834;6.286;2024-02-28T14:14:05;100146.41;;;19.66
15144;BMP180;7672;50.834;6.286;2024-02-28T14:16:32;100132.03;;;19.60
15144;BMP180;7672;50.834;6.286;2024-02-28T14:18:59;100141.47;;;19.58
15144;BMP180;7672;50.834;6.286;2024-02-28T14:21:27;100135.50;;;19.58
15144;BMP180;7672;50.834;6.286;2024-02-28T14:23:54;100138.91;;;19.58
15144;BMP180;7672;50.834;6.286;2024-02-28T14:26:21;100135.47;;;19.59